createdAt,value
2023-01-27T00:00:44.745Z,0.00
2023-01-27T00:01:44.804Z,0.00
2023-01-27T00:02:44.783Z,0.00
2023-01-27T00:03:44.812Z,0.00
2023-01-27T00:04:44.704Z,0.00
2023-01-27T00:05:44.731Z,0.00
2023-01-27T00:06:44.703Z,0.00
2023-01-27T00:07:44.711Z,0.00
2023-01-27T00:08:44.655Z,0.00
2023-01-27T00:09:44.702Z,0.00
2023-01-27T00:10:44.660Z,0.00
2023-01-27T00:11:44.633Z,0.00
2023-01-27T00:12:44.589Z,0.00
2023-01-27T00:13:44.607Z,0.00
2023-01-27T00:14:44.619Z,0.00
2023-01-27T00:15:44.692Z,0.00
2023-01-27T00:16:44.569Z,0.00
2023-01-27T00:17:44.562Z,0.00
2023-01-27T00:18:44.532Z,0.00
2023-01-27T00:19:44.563Z,0.00
2023-01-27T00:20:44.569Z,0.00
2023-01-27T00:21:44.520Z,0.00
2023-01-27T00:22:44.549Z,0.00
2023-01-27T00:23:44.534Z,0.00
2023-01-27T00:24:44.458Z,0.00
2023-01-27T00:25:44.467Z,0.00
2023-01-27T00:26:44.460Z,0.00
2023-01-27T00:27:44.450Z,0.00
2023-01-27T00:28:44.463Z,0.00
2023-01-27T00:29:44.418Z,0.00
2023-01-27T00:30:44.435Z,0.00
2023-01-27T00:31:44.496Z,0.00
2023-01-27T00:32:44.406Z,0.00
2023-01-27T00:33:44.422Z,0.00
2023-01-27T00:34:44.356Z,0.00
2023-01-27T00:35:44.375Z,0.00
2023-01-27T00:36:44.327Z,0.00
2023-01-27T00:37:44.352Z,0.00
2023-01-27T00:38:44.349Z,0.00
2023-01-27T00:39:44.323Z,0.00
2023-01-27T00:40:44.279Z,0.00
2023-01-27T00:41:44.332Z,0.00
2023-01-27T00:42:44.263Z,0.00
2023-01-27T00:43:44.323Z,0.00
2023-01-27T00:44:44.279Z,0.00
2023-01-27T00:45:44.249Z,0.00
2023-01-27T00:46:44.272Z,0.00
2023-01-27T00:47:44.247Z,0.00
2023-01-27T00:48:44.198Z,0.00
2023-01-27T00:49:44.249Z,0.00
2023-01-27T00:50:44.165Z,0.00
2023-01-27T00:51:44.180Z,0.00
2023-01-27T00:52:44.163Z,0.00
2023-01-27T00:53:44.151Z,0.00
2023-01-27T00:54:44.219Z,0.00
2023-01-27T00:55:44.130Z,0.00
2023-01-27T00:56:44.133Z,0.00
2023-01-27T00:57:44.108Z,0.00
2023-01-27T00:58:44.094Z,0.00
2023-01-27T00:59:44.095Z,0.00
2023-01-27T01:00:44.102Z,0.00
2023-01-27T01:01:44.106Z,0.00
2023-01-27T01:02:44.063Z,0.00
2023-01-27T01:03:44.041Z,0.00
2023-01-27T01:04:44.013Z,0.00
2023-01-27T01:05:44.053Z,0.00
2023-01-27T01:06:43.991Z,0.00
2023-01-27T01:07:44.025Z,0.00
2023-01-27T01:08:43.966Z,0.00
2023-01-27T01:09:44.009Z,0.00
2023-01-27T01:10:43.962Z,0.00
2023-01-27T01:11:43.983Z,0.00
2023-01-27T01:12:43.924Z,0.00
2023-01-27T01:13:43.923Z,0.00
2023-01-27T01:14:43.903Z,0.00
2023-01-27T01:15:43.940Z,0.00
2023-01-27T01:16:43.925Z,0.00
2023-01-27T01:17:43.903Z,0.00
2023-01-27T01:18:43.862Z,0.00
2023-01-27T01:19:43.878Z,0.00
2023-01-27T01:20:43.843Z,0.00
2023-01-27T01:21:43.873Z,0.00
2023-01-27T01:22:43.819Z,0.00
2023-01-27T01:23:43.849Z,0.00
2023-01-27T01:24:43.793Z,0.00
2023-01-27T01:25:43.786Z,0.00
2023-01-27T01:26:43.793Z,0.00
2023-01-27T01:27:43.774Z,0.00
2023-01-27T01:28:43.741Z,0.00
2023-01-27T01:29:43.746Z,0.00
2023-01-27T01:30:43.828Z,0.00
2023-01-27T01:31:43.775Z,0.00
2023-01-27T01:32:43.689Z,0.00
2023-01-27T01:33:43.748Z,0.00
2023-01-27T01:34:43.676Z,0.00
2023-01-27T01:35:43.677Z,0.00
2023-01-27T01:36:43.683Z,0.00
2023-01-27T01:37:43.704Z,0.00
2023-01-27T01:38:43.632Z,0.00
2023-01-27T01:39:43.633Z,0.00
2023-01-27T01:40:43.609Z,0.00
2023-01-27T01:41:43.653Z,0.00
2023-01-27T01:42:43.582Z,0.00
2023-01-27T01:43:43.590Z,0.00
2023-01-27T01:44:43.582Z,0.00
2023-01-27T01:45:43.563Z,0.00
2023-01-27T01:46:43.594Z,0.00
2023-01-27T01:47:43.551Z,0.00
2023-01-27T01:48:43.517Z,0.00
2023-01-27T01:49:43.571Z,0.00
2023-01-27T01:50:43.539Z,0.00
2023-01-27T01:51:43.537Z,0.00
2023-01-27T01:52:43.466Z,0.00
2023-01-27T01:53:43.501Z,0.00
2023-01-27T01:54:43.452Z,0.00
2023-01-27T01:55:43.461Z,0.00
2023-01-27T01:56:43.478Z,0.00
2023-01-27T01:57:43.422Z,0.00
2023-01-27T01:59:43.406Z,0.00
2023-01-27T02:00:43.383Z,0.00
2023-01-27T02:01:43.733Z,0.00
2023-01-27T02:02:43.420Z,0.00
2023-01-27T02:03:43.398Z,0.00
2023-01-27T02:04:43.345Z,0.00
2023-01-27T02:05:43.335Z,0.00
2023-01-27T02:06:43.318Z,0.00
2023-01-27T02:07:43.494Z,0.00
2023-01-27T02:08:43.343Z,0.00
2023-01-27T02:09:43.299Z,0.00
2023-01-27T02:10:43.275Z,0.00
2023-01-27T02:11:43.247Z,0.00
2023-01-27T02:12:43.304Z,0.00
2023-01-27T02:13:43.236Z,0.00
2023-01-27T02:14:43.240Z,0.00
2023-01-27T02:15:43.213Z,0.00
2023-01-27T02:16:43.234Z,0.00
2023-01-27T02:17:43.273Z,0.00
2023-01-27T02:18:43.260Z,0.00
2023-01-27T02:19:43.176Z,0.00
2023-01-27T02:20:43.173Z,0.00
2023-01-27T02:21:43.184Z,0.00
2023-01-27T02:22:43.201Z,0.00
2023-01-27T02:23:43.127Z,0.00
2023-01-27T02:24:43.120Z,0.00
2023-01-27T02:25:43.088Z,0.00
2023-01-27T02:26:43.135Z,0.00
2023-01-27T02:27:43.086Z,0.00
2023-01-27T02:28:43.114Z,0.00
2023-01-27T02:29:43.069Z,0.00
2023-01-27T02:30:43.144Z,0.00
2023-01-27T02:31:43.279Z,0.00
2023-01-27T02:32:43.041Z,0.00
2023-01-27T02:33:43.045Z,0.00
2023-01-27T02:34:43.009Z,0.00
2023-01-27T02:35:42.981Z,0.00
2023-01-27T02:36:43.002Z,0.00
2023-01-27T02:37:43.011Z,0.00
2023-01-27T02:38:42.976Z,0.00
2023-01-27T02:39:42.976Z,0.00
2023-01-27T02:40:42.985Z,0.00
2023-01-27T02:41:42.923Z,0.00
2023-01-27T02:42:42.927Z,0.00
2023-01-27T02:43:42.913Z,0.00
2023-01-27T02:44:42.908Z,0.00
2023-01-27T02:45:42.905Z,0.00
2023-01-27T02:46:42.882Z,0.00
2023-01-27T02:47:42.861Z,0.00
2023-01-27T02:48:42.866Z,0.00
2023-01-27T02:49:42.864Z,0.00
2023-01-27T02:50:42.837Z,0.00
2023-01-27T02:51:42.845Z,0.00
2023-01-27T02:52:42.827Z,0.00
2023-01-27T02:53:42.824Z,0.00
2023-01-27T02:54:42.875Z,0.00
2023-01-27T02:55:42.799Z,0.00
2023-01-27T02:56:42.773Z,0.00
2023-01-27T02:57:42.750Z,0.00
2023-01-27T02:58:42.754Z,0.00
2023-01-27T02:59:42.721Z,0.00
2023-01-27T03:00:42.765Z,0.00
2023-01-27T03:01:42.725Z,0.00
2023-01-27T03:02:42.769Z,0.00
2023-01-27T03:03:42.674Z,0.00
2023-01-27T03:04:42.679Z,0.00
2023-01-27T03:05:42.660Z,0.00
2023-01-27T03:06:42.692Z,0.00
2023-01-27T03:07:42.630Z,0.00
2023-01-27T03:08:42.678Z,0.00
2023-01-27T03:09:42.618Z,0.00
2023-01-27T03:10:42.611Z,0.00
2023-01-27T03:11:42.618Z,0.00
2023-01-27T03:12:42.588Z,0.00
2023-01-27T03:13:42.562Z,0.00
2023-01-27T03:14:42.566Z,0.00
2023-01-27T03:15:42.554Z,0.00
2023-01-27T03:16:42.577Z,0.00
2023-01-27T03:17:42.512Z,0.00
2023-01-27T03:18:42.577Z,0.00
2023-01-27T03:19:42.490Z,0.00
2023-01-27T03:20:42.500Z,0.00
2023-01-27T03:21:42.716Z,0.00
2023-01-27T03:22:42.514Z,0.00
2023-01-27T03:23:42.454Z,0.00
2023-01-27T03:24:42.469Z,0.00
2023-01-27T03:25:42.423Z,0.00
2023-01-27T03:26:42.478Z,0.00
2023-01-27T03:27:43.356Z,0.00
2023-01-27T03:28:42.476Z,0.00
2023-01-27T03:29:42.379Z,0.00
2023-01-27T03:30:42.622Z,0.00
2023-01-27T03:31:42.472Z,0.00
2023-01-27T03:32:42.365Z,0.00
2023-01-27T03:33:42.332Z,0.00
2023-01-27T03:34:42.337Z,0.00
2023-01-27T03:35:42.314Z,0.00
2023-01-27T03:36:42.322Z,0.00
2023-01-27T03:37:42.321Z,0.00
2023-01-27T03:38:42.340Z,0.00
2023-01-27T03:39:42.288Z,0.00
2023-01-27T03:40:42.277Z,0.00
2023-01-27T03:41:42.241Z,0.00
2023-01-27T03:42:42.251Z,0.00
2023-01-27T03:43:42.255Z,0.00
2023-01-27T03:44:42.228Z,0.00
2023-01-27T03:45:42.201Z,0.00
2023-01-27T03:46:42.205Z,0.00
2023-01-27T03:47:42.181Z,0.00
2023-01-27T03:48:42.218Z,0.00
2023-01-27T03:49:42.162Z,0.00
2023-01-27T03:50:42.183Z,0.00
2023-01-27T03:51:42.168Z,0.00
2023-01-27T03:52:42.171Z,0.00
2023-01-27T03:53:42.135Z,0.00
2023-01-27T03:54:42.126Z,0.00
2023-01-27T03:55:42.220Z,0.00
2023-01-27T03:56:42.130Z,0.00
2023-01-27T03:57:42.114Z,0.00
2023-01-27T03:58:42.070Z,0.00
2023-01-27T03:59:42.043Z,0.00
2023-01-27T04:00:42.056Z,0.00
2023-01-27T04:01:42.096Z,0.00
2023-01-27T04:02:42.091Z,0.00
2023-01-27T04:03:41.999Z,0.00
2023-01-27T04:04:42.038Z,0.00
2023-01-27T04:05:42.019Z,0.00
2023-01-27T04:06:41.993Z,0.00
2023-01-27T04:07:41.951Z,0.00
2023-01-27T04:08:41.970Z,0.00
2023-01-27T04:09:41.923Z,0.00
2023-01-27T04:10:41.976Z,0.00
2023-01-27T04:11:41.917Z,0.00
2023-01-27T04:12:41.915Z,0.00
2023-01-27T04:13:41.890Z,0.00
2023-01-27T04:14:41.901Z,0.00
2023-01-27T04:15:41.921Z,0.00
2023-01-27T04:16:41.884Z,0.00
2023-01-27T04:17:41.891Z,0.00
2023-01-27T04:18:41.854Z,0.00
2023-01-27T04:19:41.812Z,0.00
2023-01-27T04:20:41.826Z,0.00
2023-01-27T04:21:41.801Z,0.00
2023-01-27T04:22:41.854Z,0.00
2023-01-27T04:23:41.768Z,0.00
2023-01-27T04:24:42.794Z,0.00
2023-01-27T04:25:41.753Z,0.00
2023-01-27T04:26:41.766Z,0.00
2023-01-27T04:27:41.767Z,0.00
2023-01-27T04:28:44.545Z,0.00
2023-01-27T04:29:41.724Z,0.00
2023-01-27T04:30:41.751Z,0.00
2023-01-27T04:31:41.802Z,0.00
2023-01-27T04:32:41.684Z,0.00
2023-01-27T04:33:41.669Z,0.00
2023-01-27T04:34:41.664Z,0.00
2023-01-27T04:35:41.634Z,0.00
2023-01-27T04:36:41.746Z,0.00
2023-01-27T04:37:41.610Z,0.00
2023-01-27T04:38:41.649Z,0.00
2023-01-27T04:39:41.593Z,0.00
2023-01-27T04:40:41.614Z,0.00
2023-01-27T04:41:41.623Z,0.00
2023-01-27T04:42:41.582Z,0.00
2023-01-27T04:43:41.557Z,0.00
2023-01-27T04:44:41.557Z,0.00
2023-01-27T04:45:41.558Z,0.00
2023-01-27T04:46:41.588Z,0.00
2023-01-27T04:47:41.506Z,0.00
2023-01-27T04:48:41.530Z,0.00
2023-01-27T04:49:41.486Z,0.00
2023-01-27T04:50:42.386Z,0.00
2023-01-27T04:51:41.503Z,0.00
2023-01-27T04:52:41.475Z,0.00
2023-01-27T04:53:41.447Z,0.00
2023-01-27T04:54:41.484Z,0.00
2023-01-27T04:55:41.460Z,0.00
2023-01-27T04:56:41.424Z,0.00
2023-01-27T04:57:41.389Z,0.00
2023-01-27T04:58:41.400Z,0.00
2023-01-27T04:59:41.382Z,0.00
2023-01-27T05:00:41.413Z,0.00
2023-01-27T05:01:41.418Z,0.00
2023-01-27T05:02:41.408Z,0.00
2023-01-27T05:03:41.338Z,0.00
2023-01-27T05:04:41.338Z,0.00
2023-01-27T05:05:41.372Z,0.00
2023-01-27T05:06:41.318Z,0.00
2023-01-27T05:07:41.315Z,0.00
2023-01-27T05:08:41.308Z,0.00
2023-01-27T05:09:41.291Z,0.00
2023-01-27T05:10:41.309Z,0.00
2023-01-27T05:11:41.285Z,0.00
2023-01-27T05:12:41.236Z,0.00
2023-01-27T05:13:41.213Z,0.00
2023-01-27T05:14:41.260Z,0.00
2023-01-27T05:15:41.274Z,0.00
2023-01-27T05:16:41.256Z,0.00
2023-01-27T05:17:41.166Z,0.00
2023-01-27T05:18:41.213Z,0.00
2023-01-27T05:19:41.144Z,0.00
2023-01-27T05:20:41.152Z,0.00
2023-01-27T05:21:41.161Z,0.00
2023-01-27T05:22:41.124Z,0.00
2023-01-27T05:23:41.112Z,0.00
2023-01-27T05:24:41.121Z,0.00
2023-01-27T05:25:41.074Z,0.00
2023-01-27T05:26:41.170Z,0.00
2023-01-27T05:27:41.071Z,0.00
2023-01-27T05:28:41.092Z,0.00
2023-01-27T05:29:41.032Z,0.00
2023-01-27T05:30:41.113Z,0.00
2023-01-27T05:31:41.128Z,0.00
2023-01-27T05:32:41.035Z,0.00
2023-01-27T05:33:40.993Z,0.00
2023-01-27T05:34:41.010Z,0.00
2023-01-27T05:35:40.969Z,0.00
2023-01-27T05:36:41.009Z,0.00
2023-01-27T05:37:40.948Z,0.00
2023-01-27T05:38:41.029Z,0.00
2023-01-27T05:39:40.942Z,0.00
2023-01-27T05:40:40.969Z,0.00
2023-01-27T05:41:40.938Z,0.00
2023-01-27T05:42:40.938Z,0.00
2023-01-27T05:43:40.892Z,0.00
2023-01-27T05:44:40.886Z,0.00
2023-01-27T05:45:40.856Z,0.00
2023-01-27T05:46:40.960Z,0.00
2023-01-27T05:47:40.847Z,0.00
2023-01-27T05:48:40.874Z,0.00
2023-01-27T05:49:40.815Z,0.00
2023-01-27T05:50:40.840Z,0.00
2023-01-27T05:51:40.847Z,0.00
2023-01-27T05:52:40.794Z,0.00
2023-01-27T05:53:40.758Z,0.00
2023-01-27T05:54:40.779Z,0.00
2023-01-27T05:55:40.738Z,0.00
2023-01-27T05:56:40.867Z,0.00
2023-01-27T05:57:40.730Z,0.00
2023-01-27T05:58:40.730Z,0.00
2023-01-27T05:59:40.701Z,0.00
2023-01-27T06:00:40.786Z,0.00
2023-01-27T06:01:40.748Z,0.00
2023-01-27T06:02:40.721Z,0.00
2023-01-27T06:03:40.688Z,0.00
2023-01-27T06:04:40.704Z,0.00
2023-01-27T06:05:40.635Z,0.00
2023-01-27T06:06:40.646Z,0.00
2023-01-27T06:07:40.672Z,0.00
2023-01-27T06:08:40.673Z,0.00
2023-01-27T06:09:40.626Z,0.00
2023-01-27T06:10:40.585Z,0.00
2023-01-27T06:11:40.625Z,0.00
2023-01-27T06:12:40.544Z,0.00
2023-01-27T06:13:40.571Z,0.00
2023-01-27T06:14:40.527Z,0.00
2023-01-27T06:15:40.555Z,0.00
2023-01-27T06:16:40.677Z,0.00
2023-01-27T06:17:40.525Z,0.00
2023-01-27T06:18:40.484Z,0.00
2023-01-27T06:19:40.497Z,0.00
2023-01-27T06:20:40.483Z,0.00
2023-01-27T06:21:40.511Z,0.00
2023-01-27T06:22:40.442Z,0.00
2023-01-27T06:23:40.471Z,0.00
2023-01-27T06:24:40.435Z,0.00
2023-01-27T06:25:40.426Z,0.00
2023-01-27T06:26:40.448Z,0.00
2023-01-27T06:27:40.461Z,0.00
2023-01-27T06:28:40.385Z,0.00
2023-01-27T06:29:47.205Z,0.00
2023-01-27T06:30:47.450Z,0.00
2023-01-27T06:31:46.995Z,0.00
2023-01-27T06:32:40.393Z,0.00
2023-01-27T06:33:42.145Z,0.00
2023-01-27T06:34:40.699Z,0.00
2023-01-27T06:35:40.423Z,0.00
2023-01-27T06:36:40.351Z,0.00
2023-01-27T06:37:40.357Z,0.00
2023-01-27T06:38:40.589Z,0.00
2023-01-27T06:39:40.324Z,0.00
2023-01-27T06:40:40.250Z,0.00
2023-01-27T06:41:40.337Z,0.00
2023-01-27T06:42:40.244Z,0.00
2023-01-27T06:43:40.399Z,0.00
2023-01-27T06:44:40.209Z,0.00
2023-01-27T06:45:40.268Z,4.00
2023-01-27T06:46:40.261Z,4.00
2023-01-27T06:47:40.183Z,4.00
2023-01-27T06:48:40.207Z,0.00
2023-01-27T06:49:40.221Z,4.00
2023-01-27T06:50:40.137Z,4.00
2023-01-27T06:51:40.158Z,4.00
2023-01-27T06:52:40.138Z,8.00
2023-01-27T06:53:40.373Z,8.00
2023-01-27T06:54:40.121Z,8.00
2023-01-27T06:55:40.154Z,8.00
2023-01-27T06:56:40.090Z,12.00
2023-01-27T06:57:40.069Z,12.00
2023-01-27T06:58:40.077Z,16.00
2023-01-27T06:59:40.103Z,16.00
2023-01-27T07:00:40.081Z,20.00
2023-01-27T07:01:40.139Z,20.00
2023-01-27T07:02:40.169Z,20.00
2023-01-27T07:03:40.086Z,20.00
2023-01-27T07:04:40.087Z,24.00
2023-01-27T07:05:40.295Z,28.00
2023-01-27T07:06:39.975Z,32.00
2023-01-27T07:07:39.981Z,40.00
2023-01-27T07:08:39.984Z,44.00
2023-01-27T07:09:51.697Z,52.00
2023-01-27T07:10:39.939Z,64.00
2023-01-27T07:11:40.075Z,72.00
2023-01-27T07:12:39.910Z,76.00
2023-01-27T07:13:39.906Z,88.00
2023-01-27T07:14:39.982Z,96.00
2023-01-27T07:15:39.870Z,108.00
2023-01-27T07:16:40.915Z,124.00
2023-01-27T07:17:39.915Z,136.00
2023-01-27T15:33:50.782Z,1448.00
2023-01-27T15:34:51.584Z,1388.00
2023-01-27T15:35:51.550Z,1288.00
2023-01-27T15:36:51.990Z,1184.00
2023-01-27T15:37:51.599Z,1100.00
2023-01-27T15:38:51.547Z,1028.00
2023-01-27T16:59:44.166Z,0.00
2023-01-27T17:00:45.201Z,0.00
2023-01-27T17:01:45.118Z,0.00
2023-01-27T17:02:45.129Z,0.00
2023-01-27T17:03:45.896Z,0.00
2023-01-27T19:02:03.624Z,0.00
2023-01-27T19:03:04.367Z,0.00
2023-01-27T19:04:04.360Z,0.00
2023-01-27T19:05:04.325Z,0.00
2023-01-27T19:06:05.339Z,0.00
2023-01-27T19:07:04.333Z,0.00
2023-01-27T19:08:04.297Z,0.00
2023-01-27T19:09:04.278Z,0.00
2023-01-27T19:10:04.266Z,0.00
2023-01-27T19:11:04.298Z,0.00
2023-01-27T19:12:04.275Z,0.00
2023-01-27T19:13:05.270Z,0.00
2023-01-27T19:14:04.202Z,0.00
2023-01-27T19:15:04.347Z,0.00
2023-01-27T19:16:04.242Z,0.00
2023-01-27T19:17:04.202Z,0.00
2023-01-27T19:18:04.158Z,0.00
2023-01-27T19:19:04.196Z,0.00
2023-01-27T19:20:04.184Z,0.00
2023-01-27T19:21:04.161Z,0.00
2023-01-27T19:22:04.166Z,0.00
2023-01-27T19:23:04.176Z,0.00
2023-01-27T19:24:04.416Z,0.00
2023-01-27T19:25:04.137Z,0.00
2023-01-27T19:26:04.074Z,0.00
2023-01-27T19:27:04.400Z,0.00
2023-01-27T19:28:04.054Z,0.00
2023-01-27T19:29:04.039Z,0.00
2023-01-27T19:30:04.257Z,0.00
2023-01-27T19:31:04.161Z,0.00
2023-01-27T19:32:04.114Z,0.00
2023-01-27T19:33:03.993Z,0.00
2023-01-27T19:34:04.046Z,0.00
2023-01-27T19:35:03.998Z,0.00
2023-01-27T19:36:03.962Z,0.00
2023-01-27T19:37:04.684Z,0.00
2023-01-27T19:38:04.699Z,0.00
2023-01-27T19:39:04.023Z,0.00
2023-01-27T19:40:04.077Z,0.00
2023-01-27T19:41:03.922Z,0.00
2023-01-27T19:42:04.006Z,0.00
2023-01-27T19:43:03.929Z,0.00
2023-01-27T19:44:03.897Z,0.00
2023-01-27T19:45:03.901Z,0.00
2023-01-27T19:46:03.957Z,0.00
2023-01-27T19:47:03.874Z,0.00
2023-01-27T19:48:03.862Z,0.00
2023-01-27T19:49:03.882Z,0.00
2023-01-27T19:50:05.159Z,0.00
2023-01-27T19:51:04.163Z,0.00
2023-01-27T19:52:03.819Z,0.00
2023-01-27T19:53:04.209Z,0.00
2023-01-27T19:54:03.772Z,0.00
2023-01-27T19:55:03.763Z,0.00
2023-01-27T19:56:03.790Z,0.00
2023-01-27T19:57:03.770Z,0.00
2023-01-27T19:58:03.730Z,0.00
2023-01-27T19:59:03.802Z,0.00
2023-01-27T20:00:03.859Z,0.00
2023-01-27T20:08:22.263Z,0.00
2023-01-27T20:09:23.320Z,0.00
2023-01-27T20:10:23.155Z,0.00
2023-01-27T20:11:23.548Z,0.00
2023-01-27T20:12:23.906Z,0.00
2023-01-27T20:13:23.553Z,0.00
2023-01-27T20:14:23.287Z,0.00
2023-01-27T20:15:23.163Z,0.00
2023-01-27T20:16:23.097Z,0.00
2023-01-27T20:17:23.213Z,0.00
2023-01-27T20:18:23.999Z,0.00
2023-01-27T20:19:23.128Z,0.00
2023-01-27T20:20:23.045Z,0.00
2023-01-27T20:21:23.100Z,0.00
2023-01-27T20:22:23.185Z,0.00
2023-01-27T20:23:23.135Z,0.00
2023-01-27T20:24:23.060Z,0.00
2023-01-27T20:25:23.093Z,0.00
2023-01-27T20:26:22.992Z,0.00
2023-01-27T20:27:22.971Z,0.00
2023-01-27T20:28:22.945Z,0.00
2023-01-27T20:29:22.994Z,0.00
2023-01-27T20:30:23.168Z,0.00
2023-01-27T20:31:23.095Z,0.00
2023-01-27T20:35:40.213Z,0.00
2023-01-27T20:36:41.190Z,0.00
2023-01-27T20:37:41.388Z,0.00
2023-01-27T20:38:41.119Z,0.00
2023-01-27T20:39:41.500Z,0.00
2023-01-27T20:40:42.094Z,0.00
2023-01-27T20:41:41.603Z,0.00
2023-01-27T20:42:41.396Z,0.00
2023-01-27T20:43:41.272Z,0.00
2023-01-27T20:44:41.033Z,0.00
2023-01-27T20:45:41.053Z,0.00
2023-01-27T20:46:41.038Z,0.00
2023-01-27T20:47:41.018Z,0.00
2023-01-27T20:48:40.918Z,0.00
2023-01-27T20:49:40.998Z,0.00
2023-01-27T20:50:41.665Z,0.00
2023-01-27T20:51:41.073Z,0.00
2023-01-27T20:52:40.993Z,0.00
2023-01-27T20:53:40.857Z,0.00
2023-01-27T20:54:40.876Z,0.00
2023-01-27T20:55:40.855Z,0.00
2023-01-27T20:56:40.810Z,0.00
2023-01-27T20:57:40.823Z,0.00
2023-01-27T20:58:40.830Z,0.00
2023-01-27T20:59:40.940Z,0.00
2023-01-27T21:00:41.633Z,0.00
2023-01-27T21:01:47.331Z,0.00
2023-01-27T21:02:40.770Z,0.00
2023-01-27T21:03:40.789Z,0.00
2023-01-27T21:04:40.731Z,0.00
2023-01-27T21:05:40.728Z,0.00
2023-01-27T21:06:40.691Z,0.00
2023-01-27T21:07:40.705Z,0.00
2023-01-27T21:08:40.720Z,0.00
2023-01-27T21:09:40.757Z,0.00
2023-01-27T21:10:40.949Z,0.00
2023-01-27T21:11:40.689Z,0.00
2023-01-27T21:12:40.647Z,0.00
2023-01-27T21:13:40.627Z,0.00
2023-01-27T21:14:40.630Z,0.00
2023-01-27T21:15:41.685Z,0.00
2023-01-27T21:16:40.646Z,0.00
2023-01-27T21:17:42.243Z,0.00
2023-01-27T21:18:40.879Z,0.00
2023-01-27T21:19:42.581Z,0.00
2023-01-27T21:20:40.562Z,0.00
2023-01-27T21:21:41.405Z,0.00
2023-01-27T21:22:40.537Z,0.00
2023-01-27T21:23:40.572Z,0.00
2023-01-27T21:24:40.522Z,0.00
2023-01-27T21:25:42.346Z,0.00
2023-01-27T21:26:40.595Z,0.00
2023-01-27T21:27:40.635Z,0.00
2023-01-27T21:28:40.572Z,0.00
2023-01-27T21:29:42.572Z,0.00
2023-01-27T21:30:40.517Z,0.00
2023-01-27T21:31:40.557Z,0.00
2023-01-27T21:32:40.471Z,0.00
2023-01-27T21:33:40.441Z,0.00
2023-01-27T21:34:41.186Z,0.00
2023-01-27T21:35:41.585Z,0.00
2023-01-27T21:36:40.414Z,0.00
2023-01-27T21:37:41.417Z,0.00
2023-01-27T21:38:41.647Z,0.00
2023-01-27T21:39:40.609Z,0.00
2023-01-27T21:40:40.495Z,0.00
2023-01-27T21:41:40.704Z,0.00
2023-01-27T21:42:40.461Z,0.00
2023-01-27T21:43:40.686Z,0.00
2023-01-27T21:44:41.043Z,0.00
2023-01-27T21:45:40.309Z,0.00
2023-01-27T21:46:40.683Z,0.00
2023-01-27T21:47:40.318Z,0.00
2023-01-27T21:48:40.312Z,0.00
2023-01-27T21:49:41.140Z,0.00
2023-01-27T21:50:40.219Z,0.00
2023-01-27T21:51:40.651Z,0.00
2023-01-27T21:52:40.234Z,0.00
2023-01-27T21:53:40.269Z,0.00
2023-01-27T21:54:40.215Z,0.00
2023-01-27T21:55:41.113Z,0.00
2023-01-27T21:56:40.136Z,0.00
2023-01-27T21:57:41.074Z,0.00
2023-01-27T21:58:42.091Z,0.00
2023-01-27T21:59:40.202Z,0.00
2023-01-27T22:00:40.382Z,0.00
2023-01-27T22:01:40.171Z,0.00
2023-01-27T22:02:40.177Z,0.00
2023-01-27T22:03:40.346Z,0.00
2023-01-27T22:04:40.155Z,0.00
2023-01-27T22:05:41.157Z,0.00
2023-01-27T22:06:40.024Z,0.00
2023-01-27T22:07:42.609Z,0.00
2023-01-27T22:19:37.961Z,0.00
2023-01-27T22:20:38.993Z,0.00
2023-01-27T22:21:39.019Z,0.00
2023-01-27T22:22:38.899Z,0.00
2023-01-27T22:23:38.895Z,0.00
2023-01-27T22:24:38.954Z,0.00
2023-01-27T22:25:39.401Z,0.00
2023-01-27T22:26:38.927Z,0.00
2023-01-27T22:27:39.473Z,0.00
2023-01-27T22:28:38.859Z,0.00
2023-01-27T22:29:39.562Z,0.00
2023-01-27T22:30:38.945Z,0.00
2023-01-27T22:48:09.541Z,0.00
2023-01-27T23:52:57.599Z,0.00
